Time;durP1;ratioP1;P1;durP2;ratioP2;P2;SDS_P1;SDS_P2;PMS_P1;PMS_P2;Temp;Humidity;BMP_temperature;BMP_pressure;BME280_temperature;BME280_humidity;BME280_pressure;Samples;Min_cycle;Max_cycle;Signal;HPM_P1;HPM_P2
2023/07/01 00:00:51;;;;;;;11.57;9.20;;;;;;;-141.97;70.70;47492.16;5016682;28;20177;-88
2023/07/01 00:03:18;;;;;;;11.60;9.73;;;;;;;-141.97;70.93;47595.97;5023360;28;20193;-87
2023/07/01 00:05:43;;;;;;;10.37;9.27;;;;;;;-141.97;71.97;47315.34;5056548;28;20162;-86
2023/07/01 00:08:09;;;;;;;14.03;10.10;;;;;;;-141.97;72.48;47469.09;5056645;28;20200;-88
2023/07/01 00:10:34;;;;;;;12.80;9.63;;;;;;;-141.97;72.76;47449.88;5035410;28;20599;-88
2023/07/01 00:12:59;;;;;;;11.90;9.47;;;;;;;-141.97;72.55;47509.47;5019892;28;20278;-88
2023/07/01 00:15:25;;;;;;;12.80;9.93;;;;;;;-141.97;71.91;47509.47;5018793;28;20185;-88
2023/07/01 00:17:50;;;;;;;14.17;10.37;;;;;;;-141.97;72.29;47503.69;5019416;28;20227;-87
2023/07/01 00:20:16;;;;;;;11.47;9.73;;;;;;;-141.97;72.29;47419.13;5036873;28;20257;-88
2023/07/01 00:22:41;;;;;;;12.67;9.93;;;;;;;-141.97;72.08;47469.09;5034868;28;20166;-88
2023/07/01 00:25:07;;;;;;;11.47;10.10;;;;;;;-141.97;72.66;47421.06;5033832;28;20182;-88
2023/07/01 00:27:33;;;;;;;12.43;10.70;;;;;;;-141.97;72.16;47482.56;5034220;28;20188;-89
2023/07/01 00:29:58;;;;;;;12.00;10.57;;;;;;;-141.97;73.35;47390.31;5015934;28;20277;-87
2023/07/01 00:32:23;;;;;;;12.70;10.70;;;;;;;-141.97;74.22;47592.13;5033740;28;20202;-87
2023/07/01 00:34:49;;;;;;;15.70;11.00;;;;;;;-141.97;74.34;47348.03;5032873;28;20170;-87
2023/07/01 00:37:14;;;;;;;13.33;10.63;;;;;;;-141.97;74.14;47323.03;5015224;28;20198;-88
2023/07/01 00:39:40;;;;;;;13.67;10.80;;;;;;;-141.97;74.19;47440.28;5032911;28;20166;-88
2023/07/01 00:42:05;;;;;;;12.93;10.60;;;;;;;-141.97;75.32;47499.84;5032545;28;20245;-88
2023/07/01 00:44:31;;;;;;;11.90;10.30;;;;;;;-141.97;75.36;47457.56;5032911;28;20259;-87
2023/07/01 00:46:56;;;;;;;14.63;10.60;;;;;;;-141.97;75.32;47549.84;5033550;28;20161;-88
2023/07/01 00:49:22;;;;;;;12.50;10.93;;;;;;;-141.97;74.95;47349.94;5037065;28;20677;-86
2023/07/01 00:51:47;;;;;;;14.60;11.40;;;;;;;-141.97;74.74;47653.63;5019604;28;20246;-87
2023/07/01 00:54:13;;;;;;;14.53;11.20;;;;;;;-141.97;74.58;47305.75;5019232;28;20270;-85
2023/07/01 00:56:40;;;;;;;14.03;11.37;;;;;;;-141.97;74.83;47519.06;5036885;28;20729;-87
2023/07/01 00:59:05;;;;;;;15.77;11.77;;;;;;;-141.97;74.81;47638.25;5036192;28;20373;-87
2023/07/01 01:01:36;;;;;;;16.43;11.73;;;;;;;-141.97;74.69;47622.88;5036262;28;20278;-88
2023/07/01 01:04:44;;;;;;;13.17;11.60;;;;;;;-141.97;73.91;47461.41;5036313;28;20181;-87
2023/07/01 01:07:33;;;;;;;14.23;11.27;;;;;;;-141.97;73.28;47273.06;5014894;28;20665;-88
2023/07/01 01:10:09;;;;;;;15.57;12.03;;;;;;;-141.97;73.71;47422.97;5014335;28;20312;-88
2023/07/01 01:12:38;;;;;;;19.40;12.40;;;;;;;-141.97;74.44;47501.78;5014707;28;20162;-88
2023/07/01 01:15:04;;;;;;;15.47;12.00;;;;;;;-141.97;74.26;47380.69;4999021;28;20530;-88
2023/07/01 01:17:34;;;;;;;16.27;12.20;;;;;;;-141.97;74.16;47647.84;4998310;28;20237;-88
2023/07/01 01:20:13;;;;;;;14.73;12.17;;;;;;;-141.97;74.64;47542.16;4998417;28;20549;-87
2023/07/01 01:22:44;;;;;;;16.00;12.70;;;;;;;-141.97;75.39;47409.53;5014436;28;20170;-88
2023/07/01 01:25:17;;;;;;;16.63;12.70;;;;;;;-141.97;75.09;47501.78;5015005;28;20197;-87
2023/07/01 01:27:43;;;;;;;14.60;12.50;;;;;;;-141.97;74.76;47407.59;5015514;28;20275;-87
2023/07/01 01:30:09;;;;;;;15.07;12.30;;;;;;;-141.97;74.62;47467.19;4997852;28;20187;-88
2023/07/01 01:32:35;;;;;;;15.50;12.50;;;;;;;-141.97;75.02;47595.97;4997293;28;20178;-87
2023/07/01 01:35:01;;;;;;;16.23;12.60;;;;;;;-141.97;75.30;47461.41;5014017;28;20171;-86
2023/07/01 01:37:41;;;;;;;17.53;12.90;;;;;;;-141.97;75.85;47363.41;5014228;28;20305;-88
2023/07/01 01:40:30;;;;;;;17.47;13.10;;;;;;;-141.97;76.27;47488.31;5013863;28;20531;-86
2023/07/01 01:43:16;;;;;;;15.87;13.23;;;;;;;-141.97;76.54;47682.47;5020912;28;20662;-88
2023/07/01 01:45:43;;;;;;;16.40;13.17;;;;;;;-141.97;76.47;47507.53;5037097;28;20170;-87
2023/07/01 01:48:10;;;;;;;16.60;13.27;;;;;;;-141.97;75.82;47503.69;5035552;28;20170;-87
2023/07/01 01:50:38;;;;;;;18.23;13.00;;;;;;;-141.97;76.46;47509.47;5035773;28;20634;-88
2023/07/01 01:53:05;;;;;;;16.03;12.97;;;;;;;-141.97;76.88;47484.47;5036069;28;20155;-88
2023/07/01 01:55:31;;;;;;;18.07;13.60;;;;;;;-141.97;77.52;47522.91;5035500;28;20197;-88
2023/07/01 01:57:58;;;;;;;17.57;13.53;;;;;;;-141.97;77.87;47505.63;5037811;28;20225;-88
2023/07/01 02:00:24;;;;;;;18.23;13.53;;;;;;;-141.97;78.37;47682.47;5019744;28;20178;-87
2023/07/01 02:02:49;;;;;;;15.00;12.87;;;;;;;-141.97;79.32;47378.78;5036138;28;20162;-88
2023/07/01 02:05:15;;;;;;;17.27;13.57;;;;;;;-141.97;79.01;47357.63;5036240;28;20170;-88
2023/07/01 02:07:40;;;;;;;15.80;13.33;;;;;;;-141.97;78.94;47530.59;5035161;28;20166;-88
2023/07/01 02:10:07;;;;;;;15.50;13.30;;;;;;;-141.97;79.01;47447.97;5035785;28;20166;-89
2023/07/01 02:12:32;;;;;;;17.77;13.40;;;;;;;-141.97;78.92;47480.63;5017710;28;20166;-91
2023/07/01 02:14:57;;;;;;;16.60;13.03;;;;;;;-141.97;79.00;47442.19;5032671;28;20175;-88
2023/07/01 02:17:23;;;;;;;19.23;13.10;;;;;;;-141.97;78.65;47409.53;5016322;28;20245;-88
2023/07/01 02:19:48;;;;;;;15.60;12.70;;;;;;;-141.97;77.31;47515.22;5016198;28;20230;-87
2023/07/01 02:22:14;;;;;;;19.57;12.67;;;;;;;-141.97;76.66;47457.56;5016065;28;20170;-89
2023/07/01 02:24:39;;;;;;;16.67;12.87;;;;;;;-141.97;75.99;47628.63;5014924;28;20565;-87
2023/07/01 02:27:05;;;;;;;17.93;13.10;;;;;;;-141.97;76.54;47494.09;5017155;28;20194;-86
2023/07/01 02:29:31;;;;;;;15.27;12.67;;;;;;;-141.97;77.19;47467.19;5020917;28;20186;-86
2023/07/01 02:31:56;;;;;;;15.60;12.40;;;;;;;-141.97;77.80;47367.25;5046546;28;20200;-86
2023/07/01 02:34:26;;;;;;;15.73;12.57;;;;;;;-141.97;78.53;47292.28;5041952;28;20170;-88
2023/07/01 02:36:51;;;;;;;18.87;13.20;;;;;;;-141.97;78.85;47670.91;5035555;28;20204;-88
2023/07/01 02:39:17;;;;;;;15.83;13.20;;;;;;;-141.97;78.32;47461.41;5035071;28;20170;-88
2023/07/01 02:41:42;;;;;;;15.93;12.77;;;;;;;-141.97;77.12;47371.09;5035327;28;20256;-88
2023/07/01 02:44:08;;;;;;;16.00;12.97;;;;;;;-141.97;77.06;47388.38;5034269;28;20213;-87
2023/07/01 02:46:33;;;;;;;18.80;13.20;;;;;;;-141.97;76.21;47511.38;5034806;28;20170;-86
2023/07/01 02:48:59;;;;;;;15.00;12.50;;;;;;;-141.97;76.40;47663.22;5035017;28;20181;-88
2023/07/01 02:51:24;;;;;;;15.80;12.83;;;;;;;-141.97;75.75;47438.34;5016249;28;20174;-86
2023/07/01 02:53:49;;;;;;;16.97;12.97;;;;;;;-141.97;75.82;47476.78;5033877;28;20262;-87
2023/07/01 02:56:15;;;;;;;14.50;12.33;;;;;;;-141.97;75.56;47340.34;5033416;28;20177;-87
2023/07/01 02:58:40;;;;;;;15.70;12.43;;;;;;;-141.97;75.04;47407.59;5036109;28;20177;-88
2023/07/01 03:01:06;;;;;;;15.07;12.60;;;;;;;-141.97;74.70;47436.44;5035682;28;20174;-89
2023/07/01 03:03:31;;;;;;;16.33;12.67;;;;;;;-141.97;74.52;47286.53;5034167;28;20163;-88
2023/07/01 03:05:57;;;;;;;14.87;12.10;;;;;;;-141.97;74.51;47348.03;5016762;28;20244;-88
2023/07/01 03:08:23;;;;;;;14.13;12.13;;;;;;;-141.97;74.04;47619.03;5033521;28;20190;-87
2023/07/01 03:10:48;;;;;;;14.20;11.90;;;;;;;-141.97;73.88;47346.09;5033723;28;20163;-88
2023/07/01 03:13:15;;;;;;;16.87;12.03;;;;;;;-141.97;73.64;47528.69;5033729;28;20170;-87
2023/07/01 03:15:41;;;;;;;15.93;12.07;;;;;;;-141.97;73.86;47584.44;5035507;28;20181;-87
2023/07/01 03:18:07;;;;;;;15.80;13.30;;;;;;;-141.97;73.45;47703.59;5037224;28;20194;-87
2023/07/01 03:20:33;;;;;;;15.77;12.23;;;;;;;-141.97;73.07;47455.66;5036072;28;20169;-87
2023/07/01 03:22:58;;;;;;;14.63;12.50;;;;;;;-141.97;73.16;47444.13;5034849;28;20174;-88
2023/07/01 03:25:27;;;;;;;16.83;12.57;;;;;;;-141.97;73.01;47294.22;5017200;28;20584;-88
2023/07/01 03:27:53;;;;;;;18.67;13.00;;;;;;;-141.97;72.55;47699.75;5034408;28;20178;-89
2023/07/01 03:30:27;;;;;;;15.83;13.17;;;;;;;-141.97;72.21;47642.09;5034296;28;20627;-88
2023/07/01 03:32:53;;;;;;;13.80;12.30;;;;;;;-141.97;72.00;47438.34;5033545;28;20170;-88
2023/07/01 03:35:18;;;;;;;14.80;12.07;;;;;;;-141.97;71.55;47667.06;5033975;28;20202;-89
2023/07/01 03:37:45;;;;;;;14.93;11.93;;;;;;;-141.97;71.61;47474.88;5034081;28;20202;-90
2023/07/01 03:40:10;;;;;;;14.43;12.03;;;;;;;-141.97;71.14;47313.44;5033705;28;20175;-88
2023/07/01 03:42:43;;;;;;;13.97;11.83;;;;;;;-141.97;70.15;47311.50;5033831;28;20222;-86
2023/07/01 03:45:12;;;;;;;13.37;11.90;;;;;;;-141.97;69.75;47546.00;5034298;28;20170;-88
2023/07/01 03:47:40;;;;;;;15.13;11.90;;;;;;;-141.97;70.37;47513.31;5034540;28;20627;-88
2023/07/01 03:50:09;;;;;;;15.67;11.90;;;;;;;-141.97;70.39;47409.53;5016228;28;20204;-88
2023/07/01 03:52:36;;;;;;;20.07;13.87;;;;;;;-141.97;70.44;47532.53;5031827;28;20188;-88
2023/07/01 03:55:02;;;;;;;17.03;13.97;;;;;;;-141.97;70.73;47522.91;5016080;28;20178;-88
2023/07/01 03:57:28;;;;;;;15.43;12.33;;;;;;;-141.97;70.64;47507.53;5033830;28;20206;-89
2023/07/01 03:59:53;;;;;;;14.90;11.47;;;;;;;-141.97;69.52;47407.59;5034650;28;20549;-89
2023/07/01 04:02:19;;;;;;;14.53;11.50;;;;;;;-141.97;69.28;47451.81;5034257;28;20308;-87
2023/07/01 04:04:44;;;;;;;12.73;11.33;;;;;;;-141.97;68.16;47299.97;5033374;28;20174;-88
2023/07/01 04:07:10;;;;;;;15.00;11.67;;;;;;;-141.97;67.41;47576.75;5033433;28;20205;-87
2023/07/01 04:09:35;;;;;;;13.97;12.00;;;;;;;-141.97;67.29;47334.56;5034001;28;20202;-88
2023/07/01 04:12:00;;;;;;;13.73;11.50;;;;;;;-141.97;67.77;47334.56;5034676;28;20176;-88
2023/07/01 04:14:26;;;;;;;15.23;11.53;;;;;;;-141.97;66.63;47649.78;5035160;28;20170;-88
2023/07/01 04:16:51;;;;;;;14.87;10.87;;;;;;;-141.97;66.13;47463.34;5033411;28;20280;-88
2023/07/01 04:19:17;;;;;;;15.80;11.17;;;;;;;-141.97;65.61;47497.94;5033015;28;20217;-88
2023/07/01 04:21:42;;;;;;;16.40;10.97;;;;;;;-141.97;65.24;47344.19;5017279;28;20201;-88
2023/07/01 04:24:08;;;;;;;16.07;11.23;;;;;;;-141.97;65.61;47430.66;5022473;28;20206;-88
2023/07/01 04:26:35;;;;;;;18.23;13.07;;;;;;;-141.97;66.46;47369.16;5036797;28;20174;-89
2023/07/01 04:29:01;;;;;;;18.47;12.77;;;;;;;-141.97;67.98;47444.13;5018772;28;20186;-86
2023/07/01 04:31:26;;;;;;;17.10;13.47;;;;;;;-141.97;68.98;47620.94;5039367;28;20185;-87
2023/07/01 04:33:53;;;;;;;18.80;14.50;;;;;;;-141.97;68.29;47532.53;5037225;28;20544;-88
2023/07/01 04:36:18;;;;;;;15.83;12.00;;;;;;;-141.97;67.57;47449.88;5016893;28;20231;-87
2023/07/01 04:38:44;;;;;;;19.60;12.73;;;;;;;-141.97;67.20;47663.22;5036936;28;20257;-85
2023/07/01 04:41:10;;;;;;;16.53;13.03;;;;;;;-141.97;68.16;47640.16;5034781;28;20237;-86
2023/07/01 04:43:36;;;;;;;20.40;12.83;;;;;;;-141.97;69.41;47617.09;5021499;28;20177;-85
2023/07/01 04:46:01;;;;;;;16.17;12.10;;;;;;;-141.97;67.99;47611.34;5022171;28;20166;-87
2023/07/01 04:48:26;;;;;;;19.33;12.37;;;;;;;-141.97;67.07;47557.53;5039124;28;20177;-87
2023/07/01 04:50:53;;;;;;;14.77;12.30;;;;;;;-141.97;67.96;47424.91;5039745;28;20166;-87
2023/07/01 04:53:19;;;;;;;18.57;14.67;;;;;;;-141.97;67.78;47626.72;5053301;28;20146;-86
2023/07/01 04:55:44;;;;;;;15.20;11.80;;;;;;;-141.97;66.34;47392.22;5055479;28;20190;-85
2023/07/01 04:58:10;;;;;;;17.30;12.63;;;;;;;-141.97;66.01;47434.50;5047529;28;20256;-86
2023/07/01 05:00:37;;;;;;;15.43;11.83;;;;;;;-141.97;64.96;47584.44;5005311;28;20186;-86
2023/07/01 05:03:04;;;;;;;14.07;12.40;;;;;;;-141.97;63.51;47349.94;5038464;28;20166;-87
2023/07/01 05:05:29;;;;;;;14.70;12.87;;;;;;;-141.97;62.98;47538.28;5039621;28;20178;-86
2023/07/01 05:07:55;;;;;;;15.37;12.20;;;;;;;-141.97;62.61;47390.31;5038429;28;20181;-86
2023/07/01 05:10:20;;;;;;;16.27;11.73;;;;;;;-141.97;61.81;47546.00;5037261;28;20175;-87
2023/07/01 05:12:46;;;;;;;13.60;11.87;;;;;;;-141.97;61.13;47497.94;5021314;28;20673;-86
2023/07/01 05:15:11;;;;;;;14.40;11.70;;;;;;;-141.97;62.49;47311.50;5038501;28;20241;-87
2023/07/01 05:17:37;;;;;;;15.50;12.33;;;;;;;-141.97;63.96;47307.66;5020908;28;20347;-87
2023/07/01 05:20:03;;;;;;;15.23;12.20;;;;;;;-141.97;63.27;47521.00;5038544;28;20178;-85
2023/07/01 05:22:29;;;;;;;16.13;12.60;;;;;;;-141.97;63.36;47275.00;5037850;28;20196;-86
2023/07/01 05:24:55;;;;;;;15.07;12.40;;;;;;;-141.97;63.58;47278.84;5038722;28;20170;-86
2023/07/01 05:27:20;;;;;;;18.67;13.87;;;;;;;-141.97;61.43;47584.44;5020587;28;20194;-87
2023/07/01 05:29:46;;;;;;;18.90;14.03;;;;;;;-141.97;60.09;47336.50;5038835;28;20589;-86
2023/07/01 05:32:11;;;;;;;32.40;23.83;;;;;;;-141.97;60.10;47580.59;5020080;28;20566;-86
2023/07/01 05:34:37;;;;;;;27.83;19.83;;;;;;;-141.97;58.33;47311.50;5005606;28;20522;-87
2023/07/01 05:37:03;;;;;;;20.77;15.70;;;;;;;-141.97;58.27;47574.81;5039684;28;20198;-85
2023/07/01 05:39:30;;;;;;;14.87;11.80;;;;;;;-141.97;57.03;47417.22;5040922;28;20170;-86
2023/07/01 05:41:55;;;;;;;17.07;13.63;;;;;;;-141.97;57.53;47507.53;5023485;28;20325;-89
2023/07/01 05:44:21;;;;;;;15.03;13.43;;;;;;;-141.97;56.83;47271.16;5040955;28;20210;-88
2023/07/01 05:46:46;;;;;;;12.03;10.73;;;;;;;-141.97;56.33;47311.50;5040995;28;20232;-89
2023/07/01 05:49:12;;;;;;;11.07;9.90;;;;;;;-141.97;55.82;47605.56;5040487;28;20376;-88
2023/07/01 05:51:39;;;;;;;10.07;8.97;;;;;;;-141.97;54.60;47469.09;5043613;28;20166;-88
2023/07/01 05:54:04;;;;;;;10.00;8.97;;;;;;;-141.97;54.63;47497.94;5023863;28;20187;-87
2023/07/01 05:56:31;;;;;;;10.07;9.07;;;;;;;-141.97;53.90;47444.13;5038964;28;20208;-87
2023/07/01 05:58:57;;;;;;;9.90;8.57;;;;;;;-141.97;52.34;47405.69;5040709;28;20162;-89
2023/07/01 06:01:22;;;;;;;10.47;8.67;;;;;;;-141.97;51.97;47463.34;5023119;28;20269;-90
2023/07/01 06:03:48;;;;;;;10.30;8.70;;;;;;;-141.97;51.38;47555.59;5024075;28;20277;-88
2023/07/01 06:06:14;;;;;;;8.93;7.87;;;;;;;-141.97;50.55;47476.78;5041261;28;20205;-89
2023/07/01 06:08:42;;;;;;;10.27;7.87;;;;;;;-141.97;50.72;47311.50;5023061;28;20213;-89
2023/07/01 06:11:08;;;;;;;9.97;8.10;;;;;;;-141.97;50.30;47228.88;5041216;28;20296;-90
2023/07/01 06:13:37;;;;;;;8.90;7.40;;;;;;;-141.97;49.41;47553.69;5038028;28;20234;-90
2023/07/01 06:16:04;;;;;;;9.90;7.90;;;;;;;-141.97;48.64;47259.63;5038951;28;20185;-91
2023/07/01 06:18:29;;;;;;;8.83;7.83;;;;;;;-141.97;48.24;47453.72;5041177;28;20202;-91
2023/07/01 06:20:57;;;;;;;9.10;7.73;;;;;;;-141.97;48.35;47338.41;5022438;28;20665;-90
2023/07/01 06:23:22;;;;;;;9.30;7.47;;;;;;;-141.97;47.73;47597.88;5019467;28;20260;-90
2023/07/01 06:25:47;;;;;;;9.73;7.47;;;;;;;-141.97;47.34;47357.63;5036591;28;20680;-90
2023/07/01 06:28:13;;;;;;;8.73;7.83;;;;;;;-141.97;47.03;47449.88;5018573;28;20174;-90
2023/07/01 06:30:39;;;;;;;9.10;7.67;;;;;;;-141.97;46.48;47615.19;5018221;28;20192;-90
2023/07/01 06:33:06;;;;;;;8.97;7.57;;;;;;;-141.97;45.89;47536.38;5035679;28;20606;-90
2023/07/01 06:35:32;;;;;;;13.83;8.53;;;;;;;-141.97;45.69;47226.94;5036462;28;20174;-91
2023/07/01 06:37:58;;;;;;;9.60;8.00;;;;;;;-141.97;46.63;47417.22;5019398;28;20201;-90
2023/07/01 06:40:23;;;;;;;9.37;7.63;;;;;;;-141.97;47.36;47569.06;5036670;28;20198;-89
2023/07/01 06:42:48;;;;;;;8.70;7.60;;;;;;;-141.97;46.59;47615.19;5035660;28;20205;-91
2023/07/01 06:45:14;;;;;;;8.77;7.43;;;;;;;-141.97;45.77;47586.34;5033574;28;20255;-88
2023/07/01 06:47:39;;;;;;;8.63;7.20;;;;;;;-141.97;45.03;47565.22;5034696;28;20186;-90
2023/07/01 06:50:05;;;;;;;11.30;7.73;;;;;;;-141.97;44.88;47232.72;5035768;28;20185;-89
2023/07/01 06:52:31;;;;;;;8.27;7.07;;;;;;;-141.97;44.20;47597.88;5018254;28;20240;-90
2023/07/01 06:54:56;;;;;;;7.90;7.10;;;;;;;-141.97;43.31;47411.44;5020115;28;20166;-89
2023/07/01 06:57:22;;;;;;;9.70;7.20;;;;;;;-141.97;43.67;47349.94;5017018;28;20217;-92
2023/07/01 06:59:47;;;;;;;9.63;7.00;;;;;;;-141.97;43.00;47301.91;5036026;28;20174;-89
2023/07/01 07:02:12;;;;;;;7.83;7.03;;;;;;;-141.97;42.54;47532.53;5017793;28;20170;-89
2023/07/01 07:04:38;;;;;;;8.30;7.40;;;;;;;-141.97;41.47;47313.44;5034688;28;20695;-89
2023/07/01 07:07:04;;;;;;;8.40;6.53;;;;;;;-141.97;41.30;47192.34;5033693;28;20188;-89
2023/07/01 07:09:29;;;;;;;8.65;7.35;;;;;;;-141.97;41.08;47223.09;5036119;28;20305;-88
2023/07/01 07:11:55;;;;;;;10.25;7.40;;;;;;;-141.97;40.45;47267.31;5034988;28;20265;-89
2023/07/01 07:14:22;;;;;;;8.85;6.88;;;;;;;-141.97;41.41;47607.50;5016501;28;20262;-90
2023/07/01 07:16:48;;;;;;;8.35;7.55;;;;;;;-141.97;41.30;47348.03;5049355;28;20224;-89
2023/07/01 07:19:14;;;;;;;8.45;7.50;;;;;;;-141.97;40.96;47250.00;5056168;28;20195;-92
2023/07/01 07:21:40;;;;;;;13.93;10.50;;;;;;;-141.97;40.29;47622.88;5054417;28;20176;-89
2023/07/01 07:24:05;;;;;;;7.93;6.80;;;;;;;-141.97;39.92;47351.88;5033813;28;20322;-90
2023/07/01 07:26:31;;;;;;;8.45;6.70;;;;;;;-141.97;39.74;47517.16;5034996;28;20208;-89
2023/07/01 07:28:56;;;;;;;8.88;7.15;;;;;;;-141.97;40.32;47230.78;5035437;28;20594;-89
2023/07/01 07:31:22;;;;;;;8.48;7.35;;;;;;;-141.97;39.39;47546.00;5036282;28;20251;-87
2023/07/01 07:33:47;;;;;;;8.88;7.97;;;;;;;-141.97;39.42;47505.63;5018747;28;20257;-88
2023/07/01 07:36:12;;;;;;;8.23;7.43;;;;;;;-141.97;39.37;47574.81;5017930;28;20267;-89
2023/07/01 07:38:41;;;;;;;7.85;7.05;;;;;;;-141.97;39.04;47213.50;5040729;28;20193;-88
2023/07/01 07:41:08;;;;;;;8.20;6.90;;;;;;;-141.97;38.89;47538.28;5005249;28;20221;-90
2023/07/01 07:43:33;;;;;;;7.95;6.53;;;;;;;-141.97;38.64;47394.16;5035956;28;20171;-89
2023/07/01 07:45:58;;;;;;;8.02;6.72;;;;;;;-141.97;38.92;47567.13;5036602;28;20163;-90
2023/07/01 07:48:24;;;;;;;8.13;6.57;;;;;;;-141.97;38.39;47150.06;5035090;28;20160;-90
2023/07/01 07:50:49;;;;;;;7.07;6.38;;;;;;;-141.97;38.37;47167.38;5035739;28;20225;-89
2023/07/01 07:53:15;;;;;;;7.47;6.78;;;;;;;-141.97;38.70;47517.16;5034237;28;20171;-89
2023/07/01 07:55:42;;;;;;;7.80;7.00;;;;;;;-141.97;39.49;47536.38;5035559;28;20203;-88
2023/07/01 07:58:08;;;;;;;7.88;6.75;;;;;;;-141.97;38.58;47374.94;5018218;28;20213;-90
2023/07/01 08:00:33;;;;;;;12.00;9.85;;;;;;;-141.97;38.33;47411.44;5036664;28;20187;-88
2023/07/01 08:02:58;;;;;;;9.98;7.63;;;;;;;-141.97;38.03;47328.81;5017384;28;20164;-90
2023/07/01 08:05:26;;;;;;;8.43;6.25;;;;;;;-141.97;38.10;47638.25;5016552;28;20263;-88
2023/07/01 08:07:52;;;;;;;8.45;6.63;;;;;;;-141.97;37.99;47484.47;5018115;28;20177;-89
2023/07/01 08:10:18;;;;;;;8.35;7.05;;;;;;;-141.97;37.96;47378.78;5033723;28;20285;-89
2023/07/01 08:12:43;;;;;;;7.70;6.90;;;;;;;-141.97;38.47;47421.06;5035944;28;20592;-90
2023/07/01 08:15:10;;;;;;;7.63;6.93;;;;;;;-141.97;38.09;47328.81;5036537;28;20213;-88
2023/07/01 08:17:36;;;;;;;7.95;6.85;;;;;;;-141.97;37.96;47161.59;5018586;28;20250;-89
2023/07/01 08:20:02;;;;;;;7.50;6.80;;;;;;;-141.97;37.05;47515.22;5020788;28;20173;-89
2023/07/01 08:22:27;;;;;;;8.82;6.90;;;;;;;-141.97;36.79;47188.50;5035192;28;20664;-89
2023/07/01 08:24:53;;;;;;;8.40;6.68;;;;;;;-141.97;36.33;47169.28;5017652;28;20232;-89
2023/07/01 08:27:18;;;;;;;7.90;7.18;;;;;;;-141.97;36.12;47013.63;5035419;28;20243;-91
2023/07/01 08:29:44;;;;;;;10.70;6.60;;;;;;;-141.97;36.12;47226.94;5016988;28;20180;-89
2023/07/01 08:32:12;;;;;;;7.82;6.45;;;;;;;-141.97;36.14;47200.03;5037496;28;20168;-87
2023/07/01 08:34:38;;;;;;;7.20;6.57;;;;;;;-141.97;36.05;47469.09;5020722;28;20344;-89
2023/07/01 08:37:03;;;;;;;7.45;6.53;;;;;;;-141.97;35.24;47213.50;5035649;28;20193;-90
2023/07/01 08:39:29;;;;;;;7.75;7.00;;;;;;;-141.97;35.89;47215.41;5035996;28;20171;-88
2023/07/01 08:42:02;;;;;;;7.90;7.10;;;;;;;-141.97;35.98;47388.38;5036997;28;20324;-89
2023/07/01 08:44:28;;;;;;;7.80;6.82;;;;;;;-141.97;36.72;47321.13;5018508;28;20511;-89
2023/07/01 08:46:55;;;;;;;10.93;7.55;;;;;;;-141.97;35.92;47388.38;5036135;28;20154;-89
2023/07/01 08:49:22;;;;;;;8.00;7.20;;;;;;;-141.97;35.73;47561.38;5035999;28;20169;-88
2023/07/01 08:51:53;;;;;;;7.68;6.97;;;;;;;-141.97;36.11;47290.38;5017980;28;20578;-89
2023/07/01 08:54:19;;;;;;;6.95;6.35;;;;;;;-141.97;34.81;47580.59;5036094;28;20170;-89
2023/07/01 08:56:48;;;;;;;7.50;6.80;;;;;;;-141.97;34.39;47103.94;5017153;28;20205;-87
2023/07/01 08:59:14;;;;;;;7.53;6.72;;;;;;;-141.97;34.56;47321.13;5021318;28;20176;-88
2023/07/01 09:01:43;;;;;;;7.82;7.00;;;;;;;-141.97;34.47;47323.03;5046058;28;20732;-89
2023/07/01 09:04:08;;;;;;;8.25;7.43;;;;;;;-141.97;34.25;47530.59;5019971;28;20294;-89
2023/07/01 09:06:34;;;;;;;7.13;6.43;;;;;;;-141.97;33.71;47619.03;5035575;28;20177;-88
2023/07/01 09:09:01;;;;;;;7.32;6.63;;;;;;;-141.97;33.96;47138.53;5035572;28;20175;-87
2023/07/01 09:11:27;;;;;;;9.10;6.32;;;;;;;-141.97;33.23;47530.59;5038969;28;20179;-90
2023/07/01 09:13:56;;;;;;;9.57;6.90;;;;;;;-141.97;33.25;47299.97;5039667;28;20169;-89
2023/07/01 09:16:36;;;;;;;7.88;6.90;;;;;;;-141.97;33.51;47246.16;5039998;28;20198;-90
2023/07/01 09:19:06;;;;;;;7.15;6.53;;;;;;;-141.97;33.41;47200.03;5037631;28;20200;-90
2023/07/01 09:21:32;;;;;;;7.38;6.65;;;;;;;-141.97;33.12;47192.34;5020057;28;20657;-91
2023/07/01 09:24:01;;;;;;;7.78;6.97;;;;;;;-141.97;32.88;47121.25;5039051;28;20161;-90
2023/07/01 09:26:30;;;;;;;8.65;7.15;;;;;;;-141.97;32.83;47432.59;5021649;28;20177;-90
2023/07/01 09:28:57;;;;;;;8.15;7.40;;;;;;;-141.97;32.85;47084.72;5040654;28;20153;-89
2023/07/01 09:31:24;;;;;;;7.55;6.85;;;;;;;-141.97;33.03;47542.16;5040370;28;20635;-91
2023/07/01 09:34:02;;;;;;;7.50;6.70;;;;;;;-141.97;32.54;47134.69;5020967;28;20198;-90
2023/07/01 09:36:29;;;;;;;9.00;7.88;;;;;;;-141.97;32.79;47499.84;5037991;28;20578;-89
2023/07/01 09:38:55;;;;;;;8.57;7.22;;;;;;;-141.97;33.32;47348.03;5038206;28;20162;-90
2023/07/01 09:41:26;;;;;;;10.25;7.63;;;;;;;-141.97;33.49;47442.19;5050441;28;20228;-89
2023/07/01 09:43:54;;;;;;;9.15;8.25;;;;;;;-141.97;33.25;47330.72;5059362;28;20181;-87
2023/07/01 09:46:19;;;;;;;8.18;7.38;;;;;;;-141.97;33.61;47332.66;5052218;28;20175;-91
2023/07/01 09:48:55;;;;;;;8.10;7.30;;;;;;;-141.97;33.92;47319.19;5022577;28;20185;-92
2023/07/01 09:51:22;;;;;;;9.45;7.63;;;;;;;-141.97;34.07;47115.47;5040619;28;20176;-90
2023/07/01 09:53:49;;;;;;;9.30;8.07;;;;;;;-141.97;33.68;47159.69;5041496;28;20174;-91
2023/07/01 09:56:16;;;;;;;8.85;7.82;;;;;;;-141.97;35.12;47340.34;5024711;28;20185;-90
2023/07/01 09:58:44;;;;;;;9.85;8.13;;;;;;;-141.97;35.77;47353.78;5020647;28;20208;-90
2023/07/01 10:01:14;;;;;;;8.73;7.72;;;;;;;-141.97;34.79;47315.34;5023957;28;20200;-91
2023/07/01 10:03:42;;;;;;;8.68;7.90;;;;;;;-141.97;34.85;47167.38;5023476;28;20180;-90
2023/07/01 10:06:11;;;;;;;8.50;7.70;;;;;;;-141.97;35.58;47332.66;5037551;28;20550;-91
2023/07/01 10:08:38;;;;;;;9.18;8.20;;;;;;;-141.97;34.88;47544.06;5020388;28;20169;-91
2023/07/01 10:11:06;;;;;;;8.50;7.43;;;;;;;-141.97;34.76;47332.66;5037582;28;20170;-89
2023/07/01 10:13:37;;;;;;;8.18;7.07;;;;;;;-141.97;34.19;47161.59;5020410;28;20622;-90
2023/07/01 10:16:05;;;;;;;12.05;7.20;;;;;;;-141.97;33.55;47265.38;5019965;28;20591;-90
2023/07/01 10:18:30;;;;;;;8.60;6.80;;;;;;;-141.97;32.70;47102.03;5020753;28;20673;-90
2023/07/01 10:21:25;;;;;;;6.82;6.13;;;;;;;-141.97;32.56;47140.47;5020745;28;20170;-90
2023/07/01 10:23:52;;;;;;;7.88;6.13;;;;;;;-141.97;32.88;47117.41;4961037;28;20199;-87
2023/07/01 10:26:34;;;;;;;7.07;6.38;;;;;;;-141.97;32.42;47338.41;4976431;28;20778;-89
2023/07/01 10:29:20;;;;;;;6.97;6.28;;;;;;;-141.97;32.38;47321.13;4961271;28;20186;-90
2023/07/01 10:32:13;;;;;;;6.82;6.20;;;;;;;-141.97;32.85;47319.19;4966159;28;20207;-89
2023/07/01 10:34:53;;;;;;;8.02;7.22;;;;;;;-141.97;33.95;47259.63;4967668;28;20191;-87
2023/07/01 10:37:25;;;;;;;8.35;7.25;;;;;;;-141.97;34.19;47284.59;4964328;28;20659;-88
2023/07/01 10:39:52;;;;;;;8.02;6.93;;;;;;;-141.97;33.79;47286.53;4961788;28;20184;-89
2023/07/01 10:42:30;;;;;;;8.43;6.82;;;;;;;-141.97;32.56;47363.41;4978620;28;20227;-89
2023/07/01 10:45:16;;;;;;;9.57;6.63;;;;;;;-141.97;33.11;47373.00;4961195;28;20175;-89
2023/07/01 10:48:03;;;;;;;7.85;6.85;;;;;;;-141.97;33.51;47148.16;4955991;29;20188;-89
2023/07/01 10:50:29;;;;;;;7.80;6.88;;;;;;;-141.97;33.24;47273.06;4942869;29;20252;-89
2023/07/01 10:53:01;;;;;;;7.03;6.43;;;;;;;-141.97;32.16;47323.03;4940490;29;20228;-92
2023/07/01 10:55:36;;;;;;;7.13;6.53;;;;;;;-141.97;32.76;47303.81;4941352;29;20297;-90
2023/07/01 10:58:17;;;;;;;11.55;6.70;;;;;;;-141.97;32.77;47282.69;4957406;29;20192;-90
2023/07/01 11:00:43;;;;;;;8.68;6.63;;;;;;;-141.97;32.22;47092.41;4941593;29;20282;-86
2023/07/01 11:03:36;;;;;;;7.05;5.68;;;;;;;-141.97;30.57;47315.34;4956786;29;20208;-87
2023/07/01 11:06:04;;;;;;;8.32;5.60;;;;;;;-141.97;31.21;47338.41;4941700;29;20256;-90
2023/07/01 11:08:31;;;;;;;7.03;5.88;;;;;;;-141.97;30.77;47121.25;4960504;29;20157;-90
2023/07/01 11:10:58;;;;;;;6.55;5.88;;;;;;;-141.97;30.75;47396.06;4956717;29;20260;-89